Time;durP1;ratioP1;P1;durP2;ratioP2;P2;SDS_P1;SDS_P2;PMS_P1;PMS_P2;Temp;Humidity;BMP_temperature;BMP_pressure;BME280_temperature;BME280_humidity;BME280_pressure;Samples;Min_cycle;Max_cycle;Signal;HPM_P1;HPM_P2
2021/07/20 00:00:53;;;;;;;;;;;26.80;55.50;;;;;;5076758;28;20055;-65
2021/07/20 00:03:18;;;;;;;;;;;26.80;55.50;;;;;;5070007;28;19959;-63
2021/07/20 00:05:44;;;;;;;;;;;26.80;55.40;;;;;;5069816;28;20279;-63
2021/07/20 00:08:10;;;;;;;;;;;26.80;55.50;;;;;;5047916;28;19912;-65
2021/07/20 00:10:38;;;;;;;;;;;26.80;55.50;;;;;;5067827;28;19973;-62
2021/07/20 00:13:04;;;;;;;;;;;26.80;55.40;;;;;;5067957;28;19965;-64
2021/07/20 00:15:30;;;;;;;;;;;26.80;55.40;;;;;;5067561;28;20002;-65
2021/07/20 00:17:56;;;;;;;;;;;26.80;55.40;;;;;;5066638;28;20027;-62
2021/07/20 00:20:23;;;;;;;;;;;26.80;55.40;;;;;;5068215;28;19985;-63
2021/07/20 00:22:49;;;;;;;;;;;26.80;55.40;;;;;;5066446;28;19912;-66
2021/07/20 00:25:20;;;;;;;;;;;26.80;55.40;;;;;;5065884;28;19958;-65
2021/07/20 00:27:45;;;;;;;;;;;26.80;55.40;;;;;;5084602;28;20074;-63
2021/07/20 00:30:11;;;;;;;;;;;26.80;55.40;;;;;;5067089;28;19912;-66
2021/07/20 00:32:37;;;;;;;;;;;26.80;55.30;;;;;;5065233;28;19947;-62
2021/07/20 00:35:03;;;;;;;;;;;26.80;55.30;;;;;;5061142;28;20271;-63
2021/07/20 00:37:29;;;;;;;;;;;26.80;55.30;;;;;;5064843;28;20341;-62
2021/07/20 00:39:54;;;;;;;;;;;26.80;55.30;;;;;;5067727;28;19916;-62
2021/07/20 00:42:20;;;;;;;;;;;26.80;55.30;;;;;;5067430;28;20220;-62
2021/07/20 00:44:46;;;;;;;;;;;26.80;55.30;;;;;;5069633;28;19908;-64
2021/07/20 00:47:11;;;;;;;;;;;26.80;55.30;;;;;;5068005;28;19908;-62
2021/07/20 00:49:37;;;;;;;;;;;26.80;55.20;;;;;;5068040;28;20519;-66
2021/07/20 00:52:03;;;;;;;;;;;26.80;55.20;;;;;;5066577;28;19919;-62
2021/07/20 00:54:28;;;;;;;;;;;26.80;55.20;;;;;;5046536;28;19909;-65
2021/07/20 00:56:54;;;;;;;;;;;26.80;55.20;;;;;;5053097;28;19922;-62
2021/07/20 00:59:19;;;;;;;;;;;26.80;55.20;;;;;;5075433;28;20017;-63
2021/07/20 01:01:45;;;;;;;;;;;26.80;55.20;;;;;;5079384;28;19916;-64
2021/07/20 01:04:10;;;;;;;;;;;26.70;55.10;;;;;;5090040;28;20326;-62
2021/07/20 01:06:36;;;;;;;;;;;26.70;55.10;;;;;;5087100;28;19919;-62
2021/07/20 01:09:03;;;;;;;;;;;26.80;55.10;;;;;;5087228;28;19959;-62
2021/07/20 01:11:29;;;;;;;;;;;26.80;55.10;;;;;;5087032;28;20183;-65
2021/07/20 01:13:56;;;;;;;;;;;26.80;55.10;;;;;;5089960;28;19919;-65
2021/07/20 01:16:23;;;;;;;;;;;26.80;55.10;;;;;;5086792;28;20007;-63
2021/07/20 01:18:49;;;;;;;;;;;26.70;55.00;;;;;;5086971;28;19961;-62
2021/07/20 01:21:14;;;;;;;;;;;26.70;55.50;;;;;;5086062;28;20042;-63
2021/07/20 01:23:45;;;;;;;;;;;26.70;55.00;;;;;;5083912;28;19912;-67
2021/07/20 01:26:16;;;;;;;;;;;26.70;55.00;;;;;;5071328;28;19993;-61
2021/07/20 01:28:44;;;;;;;;;;;26.70;55.10;;;;;;5087342;28;19912;-65
2021/07/20 01:31:15;;;;;;;;;;;26.70;55.00;;;;;;5083880;28;19920;-63
2021/07/20 01:33:43;;;;;;;;;;;26.70;55.10;;;;;;5088000;28;19912;-63
2021/07/20 01:36:09;;;;;;;;;;;26.70;55.00;;;;;;5087015;28;19911;-66
2021/07/20 01:38:36;;;;;;;;;;;26.70;55.10;;;;;;5081523;28;20022;-66
2021/07/20 01:41:06;;;;;;;;;;;26.70;55.00;;;;;;5084486;28;20683;-65
2021/07/20 01:43:32;;;;;;;;;;;26.70;55.00;;;;;;5084443;28;19916;-64
2021/07/20 01:45:58;;;;;;;;;;;26.70;55.10;;;;;;5068601;28;19934;-62
2021/07/20 01:48:25;;;;;;;;;;;26.70;55.00;;;;;;5092742;28;19965;-63
2021/07/20 01:50:51;;;;;;;;;;;26.70;55.00;;;;;;5084414;28;19951;-65
2021/07/20 01:53:18;;;;;;;;;;;26.70;55.00;;;;;;5086163;28;19908;-61
2021/07/20 01:55:44;;;;;;;;;;;26.70;55.10;;;;;;5081193;28;19912;-66
2021/07/20 01:58:10;;;;;;;;;;;26.70;55.00;;;;;;5086451;28;19923;-64
2021/07/20 02:00:35;;;;;;;;;;;26.70;55.00;;;;;;5084184;28;19916;-64
2021/07/20 02:08:28;;;;;;;;;;;26.70;55.00;;;;;;5083803;28;19969;-63
2021/07/20 02:10:56;;;;;;;;;;;26.70;55.00;;;;;;5086158;28;20294;-64
2021/07/20 02:13:24;;;;;;;;;;;26.60;55.30;;;;;;5086667;28;19947;-62
2021/07/20 02:15:50;;;;;;;;;;;26.70;55.10;;;;;;5084885;28;19920;-62
2021/07/20 02:18:15;;;;;;;;;;;26.70;55.50;;;;;;5086643;28;19919;-65
2021/07/20 02:20:42;;;;;;;;;;;26.60;55.00;;;;;;5084435;28;20390;-62
2021/07/20 02:23:09;;;;;;;;;;;26.60;55.50;;;;;;5084647;28;19931;-62
2021/07/20 02:25:36;;;;;;;;;;;26.60;54.90;;;;;;5070960;28;19915;-62
2021/07/20 02:28:01;;;;;;;;;;;26.70;55.00;;;;;;5085056;28;20383;-64
2021/07/20 02:30:27;;;;;;;;;;;26.60;55.00;;;;;;5077958;28;19984;-64
2021/07/20 02:32:53;;;;;;;;;;;26.60;54.90;;;;;;5071254;28;19914;-66
2021/07/20 02:35:23;;;;;;;;;;;26.60;54.90;;;;;;5078583;28;19962;-64
2021/07/20 02:37:49;;;;;;;;;;;26.60;55.10;;;;;;5070992;28;19909;-64
2021/07/20 02:40:15;;;;;;;;;;;26.60;54.90;;;;;;5070169;28;20283;-65
2021/07/20 02:42:41;;;;;;;;;;;26.60;54.90;;;;;;5065532;28;19912;-64
2021/07/20 02:45:07;;;;;;;;;;;26.60;54.90;;;;;;5065777;28;19912;-63
2021/07/20 02:47:33;;;;;;;;;;;26.60;54.90;;;;;;5064518;28;20159;-65
2021/07/20 02:49:59;;;;;;;;;;;26.60;54.90;;;;;;5060329;28;19913;-64
2021/07/20 02:52:27;;;;;;;;;;;26.60;54.90;;;;;;5062561;28;19999;-63
2021/07/20 02:54:53;;;;;;;;;;;26.60;54.90;;;;;;5074692;28;19917;-63
2021/07/20 02:57:24;;;;;;;;;;;26.50;54.90;;;;;;5066688;28;19924;-62
2021/07/20 02:59:49;;;;;;;;;;;26.50;54.90;;;;;;5044667;28;19915;-62
2021/07/20 03:02:16;;;;;;;;;;;26.60;54.90;;;;;;5087733;28;19916;-62
2021/07/20 03:04:41;;;;;;;;;;;26.50;54.90;;;;;;5088815;28;20008;-64
2021/07/20 03:07:09;;;;;;;;;;;26.50;54.80;;;;;;5088040;28;19967;-62
2021/07/20 03:09:35;;;;;;;;;;;26.50;54.80;;;;;;5089206;28;19912;-63
2021/07/20 03:12:05;;;;;;;;;;;26.50;54.80;;;;;;5084760;28;19912;-63
2021/07/20 03:14:32;;;;;;;;;;;26.50;54.80;;;;;;5091220;28;19966;-61
2021/07/20 03:16:58;;;;;;;;;;;26.50;54.80;;;;;;5089518;28;19966;-61
2021/07/20 03:19:25;;;;;;;;;;;26.50;54.80;;;;;;5088876;28;20014;-62
2021/07/20 03:21:53;;;;;;;;;;;26.50;54.80;;;;;;5089550;28;19912;-62
2021/07/20 03:24:19;;;;;;;;;;;26.50;54.80;;;;;;5071121;28;19907;-61
2021/07/20 03:26:46;;;;;;;;;;;26.50;54.80;;;;;;5088780;28;19912;-61
2021/07/20 03:29:13;;;;;;;;;;;26.50;54.80;;;;;;5087729;28;20011;-62
2021/07/20 03:31:38;;;;;;;;;;;26.50;54.80;;;;;;5087846;28;20003;-63
2021/07/20 03:34:04;;;;;;;;;;;26.50;54.80;;;;;;5090803;28;19982;-64
2021/07/20 03:36:30;;;;;;;;;;;26.50;54.80;;;;;;5089121;28;20003;-63
2021/07/20 03:38:57;;;;;;;;;;;26.50;54.80;;;;;;5090840;28;19912;-64
2021/07/20 03:41:24;;;;;;;;;;;26.50;54.80;;;;;;5087758;28;19991;-61
2021/07/20 03:43:50;;;;;;;;;;;26.50;54.80;;;;;;5090049;28;19919;-60
2021/07/20 03:46:16;;;;;;;;;;;26.40;54.70;;;;;;5072489;28;19912;-64
2021/07/20 03:48:42;;;;;;;;;;;26.40;54.70;;;;;;5087491;28;19973;-65
2021/07/20 03:51:08;;;;;;;;;;;26.50;54.80;;;;;;5086386;28;19919;-61
2021/07/20 03:53:34;;;;;;;;;;;26.40;54.70;;;;;;5082112;28;19911;-64
2021/07/20 03:56:04;;;;;;;;;;;26.40;52.20;;;;;;5100903;28;19911;-63
2021/07/20 03:58:29;;;;;;;;;;;26.40;49.50;;;;;;5092805;28;20346;-62
2021/07/20 04:00:58;;;;;;;;;;;26.30;48.70;;;;;;5070127;28;19919;-63
2021/07/20 04:03:24;;;;;;;;;;;26.20;48.00;;;;;;5092020;28;22001;-62
2021/07/20 04:05:52;;;;;;;;;;;26.20;48.20;;;;;;5087144;28;19941;-62
2021/07/20 04:08:19;;;;;;;;;;;26.10;47.60;;;;;;5089242;28;19904;-61
2021/07/20 04:10:45;;;;;;;;;;;26.00;47.70;;;;;;5070277;28;20422;-61
2021/07/20 04:13:11;;;;;;;;;;;25.90;47.30;;;;;;5085725;28;19954;-63
2021/07/20 04:15:43;;;;;;;;;;;25.90;47.90;;;;;;5090507;28;20070;-63
2021/07/20 04:18:09;;;;;;;;;;;25.90;47.50;;;;;;5090656;28;19908;-61
2021/07/20 04:20:35;;;;;;;;;;;25.90;48.00;;;;;;5089842;28;19912;-61
2021/07/20 04:23:01;;;;;;;;;;;25.90;48.60;;;;;;5088125;28;20354;-63
2021/07/20 04:25:27;;;;;;;;;;;25.90;48.60;;;;;;5095401;28;20261;-63
2021/07/20 04:27:52;;;;;;;;;;;25.90;48.30;;;;;;5088815;28;19947;-62
2021/07/20 04:30:18;;;;;;;;;;;25.90;47.90;;;;;;5092221;28;19912;-62
2021/07/20 04:32:47;;;;;;;;;;;25.80;47.50;;;;;;5096015;28;20203;-61
2021/07/20 04:35:14;;;;;;;;;;;25.70;47.60;;;;;;5089357;28;20384;-61
2021/07/20 04:37:40;;;;;;;;;;;25.70;47.50;;;;;;5098219;28;19966;-66
2021/07/20 04:40:07;;;;;;;;;;;25.70;47.70;;;;;;5086273;28;19911;-61
2021/07/20 04:42:34;;;;;;;;;;;25.70;47.70;;;;;;5086940;28;19914;-64
2021/07/20 04:44:59;;;;;;;;;;;25.70;47.40;;;;;;5072508;28;19907;-63
2021/07/20 04:47:25;;;;;;;;;;;25.60;47.50;;;;;;5081616;28;20204;-62
2021/07/20 04:49:50;;;;;;;;;;;25.60;47.50;;;;;;5087397;28;20002;-63
2021/07/20 04:52:16;;;;;;;;;;;25.50;47.60;;;;;;5076358;28;20499;-64
2021/07/20 04:54:43;;;;;;;;;;;25.50;47.60;;;;;;5088312;28;19912;-66
2021/07/20 04:57:09;;;;;;;;;;;25.50;47.90;;;;;;5095712;28;20620;-62
2021/07/20 04:59:34;;;;;;;;;;;25.40;47.90;;;;;;5082639;28;19928;-64
2021/07/20 05:02:00;;;;;;;;;;;25.50;47.90;;;;;;5096475;28;20102;-62
2021/07/20 05:04:27;;;;;;;;;;;25.50;47.70;;;;;;5092158;28;20296;-63
2021/07/20 05:06:52;;;;;;;;;;;25.50;47.50;;;;;;5066725;28;20367;-64
2021/07/20 05:09:18;;;;;;;;;;;25.50;47.70;;;;;;5067312;28;19912;-64
2021/07/20 05:11:43;;;;;;;;;;;25.50;47.70;;;;;;5070617;28;19944;-64
2021/07/20 05:14:10;;;;;;;;;;;25.50;47.90;;;;;;5088989;28;19957;-62
2021/07/20 05:16:36;;;;;;;;;;;25.50;47.90;;;;;;5076702;28;20006;-62
2021/07/20 05:19:02;;;;;;;;;;;25.50;48.00;;;;;;5088049;28;20073;-62
2021/07/20 05:21:29;;;;;;;;;;;25.50;48.10;;;;;;5092997;28;19991;-62
2021/07/20 05:23:54;;;;;;;;;;;25.50;48.30;;;;;;5081423;28;20550;-62
2021/07/20 05:26:20;;;;;;;;;;;25.40;48.50;;;;;;5084674;28;19912;-61
2021/07/20 05:28:46;;;;;;;;;;;25.40;48.70;;;;;;5081196;28;20287;-63
2021/07/20 05:31:12;;;;;;;;;;;25.40;48.80;;;;;;5085860;28;19922;-63
2021/07/20 05:33:39;;;;;;;;;;;25.40;49.30;;;;;;5087387;28;19908;-62
2021/07/20 05:36:05;;;;;;;;;;;25.40;49.60;;;;;;5086062;28;20306;-65
2021/07/20 05:38:31;;;;;;;;;;;25.50;49.70;;;;;;5090113;28;19919;-66
2021/07/20 05:40:57;;;;;;;;;;;25.50;49.60;;;;;;5086112;28;20331;-62
2021/07/20 05:43:24;;;;;;;;;;;25.50;49.60;;;;;;5088977;28;19907;-62
2021/07/20 05:45:51;;;;;;;;;;;25.60;49.90;;;;;;5086834;28;19908;-62
2021/07/20 05:48:18;;;;;;;;;;;25.60;50.00;;;;;;5097946;28;19908;-64
2021/07/20 05:50:50;;;;;;;;;;;25.60;50.00;;;;;;5096100;28;19927;-64
2021/07/20 05:53:17;;;;;;;;;;;25.70;50.00;;;;;;5098999;28;19918;-64
2021/07/20 05:55:48;;;;;;;;;;;25.70;50.00;;;;;;5076688;28;20323;-62
2021/07/20 05:58:14;;;;;;;;;;;25.70;49.90;;;;;;5091392;28;19915;-63
2021/07/20 06:00:40;;;;;;;;;;;25.70;50.00;;;;;;5097681;28;19908;-63
2021/07/20 06:03:06;;;;;;;;;;;25.80;50.10;;;;;;5101257;28;20033;-62
2021/07/20 06:05:32;;;;;;;;;;;25.80;50.00;;;;;;5087061;28;20325;-65
2021/07/20 06:07:57;;;;;;;;;;;25.80;50.10;;;;;;5089357;28;19912;-63
2021/07/20 06:10:24;;;;;;;;;;;25.90;50.10;;;;;;5096781;28;19923;-63
2021/07/20 06:12:51;;;;;;;;;;;25.90;50.10;;;;;;5094967;28;19918;-62
2021/07/20 06:15:17;;;;;;;;;;;25.90;50.10;;;;;;5097176;28;19911;-63
2021/07/20 06:17:44;;;;;;;;;;;25.90;50.10;;;;;;5095474;28;19961;-64
2021/07/20 06:20:10;;;;;;;;;;;25.90;50.20;;;;;;5095477;28;19908;-65
2021/07/20 06:22:37;;;;;;;;;;;26.00;50.20;;;;;;5102329;28;19916;-63
2021/07/20 06:25:04;;;;;;;;;;;26.00;50.20;;;;;;5099088;28;19916;-61
2021/07/20 06:27:30;;;;;;;;;;;26.00;50.30;;;;;;5097764;28;19908;-61
2021/07/20 06:29:58;;;;;;;;;;;26.10;50.30;;;;;;5095717;28;19916;-64
2021/07/20 06:32:24;;;;;;;;;;;26.10;50.30;;;;;;5077468;28;19908;-63
2021/07/20 06:34:50;;;;;;;;;;;26.10;50.40;;;;;;5093188;28;20019;-61
2021/07/20 06:37:16;;;;;;;;;;;26.10;50.40;;;;;;5087938;28;19954;-62
2021/07/20 06:39:42;;;;;;;;;;;26.10;50.80;;;;;;5067753;28;20426;-67
2021/07/20 06:42:07;;;;;;;;;;;26.10;51.00;;;;;;5086683;28;19912;-63
2021/07/20 06:44:35;;;;;;;;;;;26.10;51.00;;;;;;5067215;28;20057;-62
2021/07/20 06:47:01;;;;;;;;;;;26.20;51.30;;;;;;5067736;28;19915;-64
2021/07/20 06:49:26;;;;;;;;;;;26.20;51.30;;;;;;5087554;28;19998;-63
2021/07/20 06:51:52;;;;;;;;;;;26.20;51.10;;;;;;5084892;28;19912;-64
2021/07/20 06:54:18;;;;;;;;;;;26.20;50.80;;;;;;5089748;28;19911;-63
2021/07/20 06:56:48;;;;;;;;;;;26.20;50.70;;;;;;5066779;28;20004;-63
2021/07/20 06:59:15;;;;;;;;;;;26.20;51.10;;;;;;5087814;28;19923;-62
2021/07/20 07:01:41;;;;;;;;;;;26.30;50.90;;;;;;5084741;28;20351;-62
2021/07/20 07:04:10;;;;;;;;;;;26.30;51.20;;;;;;5071533;28;19919;-63
2021/07/20 07:06:43;;;;;;;;;;;26.30;51.40;;;;;;5087811;28;19915;-62
2021/07/20 07:09:09;;;;;;;;;;;26.30;51.30;;;;;;5092393;28;19944;-64
2021/07/20 07:11:35;;;;;;;;;;;26.40;51.60;;;;;;5087641;28;19912;-63
2021/07/20 07:14:01;;;;;;;;;;;26.40;51.50;;;;;;5087768;28;19950;-63
2021/07/20 07:16:27;;;;;;;;;;;26.40;51.40;;;;;;5087370;28;20469;-63
2021/07/20 07:18:53;;;;;;;;;;;26.50;51.60;;;;;;5090529;28;19962;-62
2021/07/20 07:21:19;;;;;;;;;;;26.50;51.80;;;;;;5076126;28;19916;-63
2021/07/20 07:23:47;;;;;;;;;;;26.50;51.70;;;;;;5073129;28;19920;-62
2021/07/20 07:26:14;;;;;;;;;;;26.50;51.90;;;;;;5089296;28;19965;-61
2021/07/20 07:28:41;;;;;;;;;;;26.50;52.40;;;;;;5080229;28;19995;-64
2021/07/20 07:31:09;;;;;;;;;;;26.50;51.80;;;;;;5096908;28;20281;-63
2021/07/20 07:33:34;;;;;;;;;;;26.60;52.10;;;;;;5076623;28;20335;-62
2021/07/20 07:36:00;;;;;;;;;;;26.60;52.20;;;;;;5088475;28;20014;-62
2021/07/20 07:38:26;;;;;;;;;;;26.60;52.10;;;;;;5085693;28;19919;-62
2021/07/20 07:40:55;;;;;;;;;;;26.60;52.30;;;;;;5077203;28;20018;-64
2021/07/20 07:43:22;;;;;;;;;;;26.70;52.30;;;;;;5090969;28;19904;-62
2021/07/20 07:45:48;;;;;;;;;;;26.70;52.30;;;;;;5091621;28;19912;-63
2021/07/20 07:48:14;;;;;;;;;;;26.70;52.40;;;;;;5089610;28;19939;-62
2021/07/20 07:50:40;;;;;;;;;;;26.70;52.20;;;;;;5083778;28;19999;-64
2021/07/20 07:53:06;;;;;;;;;;;26.70;52.20;;;;;;5091839;28;19916;-63
2021/07/20 07:55:42;;;;;;;;;;;26.70;52.20;;;;;;5101993;28;19927;-62
2021/07/20 07:58:09;;;;;;;;;;;26.80;52.20;;;;;;5070305;28;20556;-64
2021/07/20 08:00:35;;;;;;;;;;;26.80;52.40;;;;;;5086584;28;20331;-63
2021/07/20 08:03:01;;;;;;;;;;;26.80;52.10;;;;;;5093964;28;19922;-65
2021/07/20 08:05:27;;;;;;;;;;;26.90;52.20;;;;;;5074699;28;19912;-64
2021/07/20 08:07:53;;;;;;;;;;;26.90;52.20;;;;;;5088096;28;20005;-63
2021/07/20 08:10:19;;;;;;;;;;;27.00;52.20;;;;;;5095733;28;19943;-61
2021/07/20 08:12:45;;;;;;;;;;;27.00;52.20;;;;;;5085028;28;20358;-64
2021/07/20 08:15:13;;;;;;;;;;;27.00;52.30;;;;;;5086567;28;20302;-62
2021/07/20 08:17:38;;;;;;;;;;;27.00;52.40;;;;;;5083837;28;19935;-63
2021/07/20 08:20:05;;;;;;;;;;;27.10;52.40;;;;;;5089398;28;19912;-62
2021/07/20 08:22:31;;;;;;;;;;;27.10;52.40;;;;;;5069685;28;19908;-63
2021/07/20 08:25:05;;;;;;;;;;;27.10;52.40;;;;;;5089437;28;20411;-62
2021/07/20 08:27:50;;;;;;;;;;;27.20;52.50;;;;;;5084737;28;20508;-64
2021/07/20 08:30:16;;;;;;;;;;;27.20;52.60;;;;;;5080575;28;19915;-63
2021/07/20 08:32:51;;;;;;;;;;;27.20;52.70;;;;;;5087726;28;19957;-65
2021/07/20 08:35:19;;;;;;;;;;;27.20;52.50;;;;;;5089003;28;19937;-63
2021/07/20 08:37:45;;;;;;;;;;;27.30;52.60;;;;;;5087736;28;19923;-62
2021/07/20 08:40:23;;;;;;;;;;;27.30;52.50;;;;;;5086812;28;19953;-63
2021/07/20 08:43:09;;;;;;;;;;;27.30;52.60;;;;;;5088249;28;20027;-61
2021/07/20 08:45:37;;;;;;;;;;;27.30;52.50;;;;;;5082874;28;20078;-60
2021/07/20 08:48:14;;;;;;;;;;;27.40;52.60;;;;;;5069533;28;19915;-62
2021/07/20 08:51:01;;;;;;;;;;;27.40;53.10;;;;;;5087013;28;19962;-63
2021/07/20 08:53:46;;;;;;;;;;;27.40;52.60;;;;;;5077799;28;20279;-62
2021/07/20 08:56:19;;;;;;;;;;;27.40;52.70;;;;;;5080301;28;20448;-64
2021/07/20 08:59:14;;;;;;;;;;;27.40;52.60;;;;;;5087067;28;19908;-62
2021/07/20 09:01:53;;;;;;;;;;;27.50;52.70;;;;;;5069022;28;19993;-60
2021/07/20 09:04:30;;;;;;;;;;;27.50;52.70;;;;;;5083972;28;20212;-62
2021/07/20 09:07:10;;;;;;;;;;;27.50;52.60;;;;;;5080414;28;19923;-63
2021/07/20 09:09:39;;;;;;;;;;;27.50;52.50;;;;;;5084282;28;19912;-60
2021/07/20 09:12:08;;;;;;;;;;;27.60;52.60;;;;;;5084407;28;20266;-61
2021/07/20 09:14:35;;;;;;;;;;;27.60;52.60;;;;;;5084030;28;19968;-61
2021/07/20 09:17:10;;;;;;;;;;;27.60;53.20;;;;;;5096005;28;20628;-61
2021/07/20 09:19:56;;;;;;;;;;;27.60;52.60;;;;;;5082856;28;19908;-62
2021/07/20 09:22:24;;;;;;;;;;;27.60;52.60;;;;;;5082604;28;20791;-63
2021/07/20 09:24:56;;;;;;;;;;;27.70;52.40;;;;;;5084717;28;19916;-63
2021/07/20 09:27:27;;;;;;;;;;;27.70;52.60;;;;;;5081738;28;19916;-65
2021/07/20 09:29:53;;;;;;;;;;;27.70;52.40;;;;;;5079445;28;19912;-63
2021/07/20 09:32:33;;;;;;;;;;;27.70;52.30;;;;;;5085359;28;20296;-62
2021/07/20 09:34:58;;;;;;;;;;;27.70;52.20;;;;;;5064201;28;19915;-63
2021/07/20 09:37:28;;;;;;;;;;;27.80;52.20;;;;;;5084255;28;20445;-60
2021/07/20 09:40:11;;;;;;;;;;;27.80;52.00;;;;;;5082003;28;19919;-62
2021/07/20 09:42:37;;;;;;;;;;;27.80;51.90;;;;;;5089507;28;20390;-64
2021/07/20 09:45:06;;;;;;;;;;;27.80;51.80;;;;;;5089470;28;19938;-63
2021/07/20 09:47:50;;;;;;;;;;;27.80;51.70;;;;;;5089525;28;19912;-62
2021/07/20 09:50:16;;;;;;;;;;;27.90;51.70;;;;;;5091472;28;19952;-64
2021/07/20 09:53:04;;;;;;;;;;;27.90;51.70;;;;;;5083797;28;20001;-65
2021/07/20 09:55:39;;;;;;;;;;;27.90;51.70;;;;;;5084030;28;19931;-63
2021/07/20 09:58:14;;;;;;;;;;;27.90;51.60;;;;;;5086781;28;19916;-64
2021/07/20 10:00:54;;;;;;;;;;;27.90;51.50;;;;;;5080404;28;19913;-62
2021/07/20 10:03:25;;;;;;;;;;;27.90;51.40;;;;;;5087124;28;19942;-62
2021/07/20 10:06:10;;;;;;;;;;;28.00;51.40;;;;;;5087473;28;20593;-61
2021/07/20 10:08:44;;;;;;;;;;;28.00;51.40;;;;;;5084484;28;19916;-64
2021/07/20 10:11:09;;;;;;;;;;;28.00;51.40;;;;;;5082330;28;20322;-65
2021/07/20 10:13:42;;;;;;;;;;;28.00;51.10;;;;;;5083177;28;19912;-61
2021/07/20 10:16:26;;;;;;;;;;;28.00;51.00;;;;;;5083453;28;20035;-64
2021/07/20 10:19:00;;;;;;;;;;;28.10;51.00;;;;;;5080249;28;20330;-60
2021/07/20 10:21:27;;;;;;;;;;;28.10;51.00;;;;;;5087772;28;19935;-61
2021/07/20 10:23:53;;;;;;;;;;;28.10;51.10;;;;;;5089816;28;20092;-64
2021/07/20 10:26:21;;;;;;;;;;;28.10;51.00;;;;;;5082980;28;19919;-63
2021/07/20 10:28:55;;;;;;;;;;;28.10;50.90;;;;;;5091039;28;20230;-60
2021/07/20 10:31:30;;;;;;;;;;;28.10;50.80;;;;;;5095780;28;19919;-62
2021/07/20 10:33:58;;;;;;;;;;;28.20;51.10;;;;;;5087260;28;20179;-62
2021/07/20 10:36:26;;;;;;;;;;;28.20;50.90;;;;;;5084272;28;19945;-62
2021/07/20 10:38:52;;;;;;;;;;;28.20;50.90;;;;;;5063266;28;21324;-63
2021/07/20 10:41:21;;;;;;;;;;;28.20;50.80;;;;;;5085624;28;19908;-62
2021/07/20 10:44:08;;;;;;;;;;;28.20;50.90;;;;;;5085920;28;19919;-61
2021/07/20 10:46:34;;;;;;;;;;;28.20;50.80;;;;;;5082333;28;19927;-62
2021/07/20 10:49:12;;;;;;;;;;;28.30;50.80;;;;;;5085512;28;20065;-63
2021/07/20 10:51:41;;;;;;;;;;;28.30;50.70;;;;;;5089703;28;19916;-63
2021/07/20 10:54:22;;;;;;;;;;;28.30;50.70;;;;;;5089907;28;19908;-67
2021/07/20 10:56:55;;;;;;;;;;;28.30;51.20;;;;;;5082318;28;20425;-64
2021/07/20 10:59:27;;;;;;;;;;;28.40;50.80;;;;;;5088164;28;20390;-66
2021/07/20 11:02:01;;;;;;;;;;;28.40;50.70;;;;;;5075086;28;20453;-64
2021/07/20 11:04:48;;;;;;;;;;;28.40;50.60;;;;;;5098724;28;19939;-67
2021/07/20 11:07:16;;;;;;;;;;;28.40;50.60;;;;;;5078961;28;19995;-64
2021/07/20 11:09:42;;;;;;;;;;;28.40;50.60;;;;;;5090745;28;19908;-64
2021/07/20 11:12:08;;;;;;;;;;;28.50;50.70;;;;;;5074387;28;19988;-62
2021/07/20 11:15:00;;;;;;;;;;;28.50;50.60;;;;;;5084851;28;19912;-65
2021/07/20 11:17:26;;;;;;;;;;;28.50;50.70;;;;;;5068883;28;20002;-62
2021/07/20 11:19:52;;;;;;;;;;;28.50;50.70;;;;;;5088644;28;20359;-61
2021/07/20 11:22:18;;;;;;;;;;;28.50;50.70;;;;;;5087702;28;20306;-63
2021/07/20 11:24:44;;;;;;;;;;;28.50;50.70;;;;;;5091001;28;19962;-64
2021/07/20 11:27:11;;;;;;;;;;;28.50;50.70;;;;;;5089345;28;19954;-62
2021/07/20 11:29:36;;;;;;;;;;;28.60;50.80;;;;;;5070530;28;19912;-64
2021/07/20 11:32:06;;;;;;;;;;;28.60;50.70;;;;;;5083310;28;20244;-65
2021/07/20 11:34:33;;;;;;;;;;;28.60;50.70;;;;;;5090009;28;19911;-65
2021/07/20 11:37:02;;;;;;;;;;;28.60;50.80;;;;;;5071084;28;19915;-64
2021/07/20 11:39:29;;;;;;;;;;;28.60;50.60;;;;;;5086766;28;19922;-64
2021/07/20 11:41:58;;;;;;;;;;;28.70;50.80;;;;;;5087412;28;19912;-66
2021/07/20 11:44:39;;;;;;;;;;;28.70;50.90;;;;;;5078009;28;19915;-67
2021/07/20 11:47:06;;;;;;;;;;;28.70;51.00;;;;;;5089006;28;19912;-65
2021/07/20 11:49:41;;;;;;;;;;;28.70;51.00;;;;;;5086345;28;19974;-65
2021/07/20 11:52:11;;;;;;;;;;;28.70;51.10;;;;;;5068323;28;19927;-63
2021/07/20 11:54:44;;;;;;;;;;;28.70;51.10;;;;;;5087815;28;20373;-65
2021/07/20 11:57:22;;;;;;;;;;;28.70;51.20;;;;;;5088695;28;19904;-63
2021/07/20 12:00:20;;;;;;;;;;;28.70;51.10;;;;;;5088645;28;19922;-65
2021/07/20 12:03:04;;;;;;;;;;;28.70;51.20;;;;;;5030843;28;19984;-63
2021/07/20 12:05:45;;;;;;;;;;;28.80;51.30;;;;;;5061987;28;19986;-64
2021/07/20 12:08:19;;;;;;;;;;;28.80;51.20;;;;;;5049504;28;19913;-61
2021/07/20 12:10:53;;;;;;;;;;;28.80;51.10;;;;;;5059548;28;19916;-65
2021/07/20 12:13:19;;;;;;;;;;;28.80;51.30;;;;;;5067396;28;19924;-61
2021/07/20 12:15:45;;;;;;;;;;;28.80;51.30;;;;;;5051129;28;19916;-62
2021/07/20 12:18:11;;;;;;;;;;;28.90;51.30;;;;;;5068477;28;19989;-63
2021/07/20 12:20:37;;;;;;;;;;;28.90;51.30;;;;;;5066871;28;19980;-62
2021/07/20 12:23:04;;;;;;;;;;;28.90;51.30;;;;;;5064822;28;19938;-64
2021/07/20 12:25:33;;;;;;;;;;;28.90;51.30;;;;;;5067318;28;19920;-63
2021/07/20 12:28:00;;;;;;;;;;;28.90;51.40;;;;;;5067716;28;19992;-62
2021/07/20 12:30:26;;;;;;;;;;;28.90;51.30;;;;;;5078574;28;19924;-65
2021/07/20 12:32:52;;;;;;;;;;;28.90;51.30;;;;;;5088915;28;19923;-62
2021/07/20 12:35:19;;;;;;;;;;;29.00;51.40;;;;;;5088558;28;19912;-64
2021/07/20 12:38:17;;;;;;;;;;;29.00;51.40;;;;;;5076502;28;19912;-62
2021/07/20 12:40:42;;;;;;;;;;;29.00;51.50;;;;;;5048705;28;19915;-64
2021/07/20 12:43:09;;;;;;;;;;;29.00;51.40;;;;;;5083625;28;20378;-62
2021/07/20 12:45:35;;;;;;;;;;;29.10;51.60;;;;;;5087094;28;19916;-65
2021/07/20 12:48:01;;;;;;;;;;;29.00;51.50;;;;;;5083328;28;19978;-62
2021/07/20 12:50:28;;;;;;;;;;;29.10;51.60;;;;;;5074799;28;19922;-62
2021/07/20 12:52:54;;;;;;;;;;;29.10;51.70;;;;;;5088302;28;19919;-63
2021/07/20 12:55:21;;;;;;;;;;;29.10;51.60;;;;;;5086523;28;20414;-62
2021/07/20 12:57:51;;;;;;;;;;;29.10;51.70;;;;;;5085030;28;19912;-67
2021/07/20 13:00:24;;;;;;;;;;;29.20;51.70;;;;;;5087146;28;19927;-62
2021/07/20 13:02:51;;;;;;;;;;;29.10;51.70;;;;;;5083848;28;19911;-62
2021/07/20 13:05:17;;;;;;;;;;;29.10;51.70;;;;;;5092834;28;20417;-62
2021/07/20 13:07:43;;;;;;;;;;;29.20;51.80;;;;;;5089630;28;19912;-62
2021/07/20 13:10:10;;;;;;;;;;;29.20;51.70;;;;;;5086954;28;19908;-62
2021/07/20 13:12:39;;;;;;;;;;;29.20;51.70;;;;;;5099120;28;20023;-63
2021/07/20 13:15:11;;;;;;;;;;;29.20;51.70;;;;;;5082989;28;19934;-65
2021/07/20 13:17:37;;;;;;;;;;;29.20;51.70;;;;;;5087384;28;20003;-64
2021/07/20 13:20:04;;;;;;;;;;;29.30;51.60;;;;;;5073104;28;20071;-63
2021/07/20 13:22:34;;;;;;;;;;;29.30;51.70;;;;;;5093578;28;19987;-63
2021/07/20 13:24:59;;;;;;;;;;;29.20;51.70;;;;;;5087157;28;19912;-66
2021/07/20 13:27:29;;;;;;;;;;;29.30;51.60;;;;;;5084516;28;20021;-64
2021/07/20 13:29:55;;;;;;;;;;;29.30;51.60;;;;;;5075563;28;19912;-61
2021/07/20 13:32:20;;;;;;;;;;;29.30;51.50;;;;;;5098979;28;19927;-62
2021/07/20 13:34:50;;;;;;;;;;;29.30;51.50;;;;;;5083918;28;20683;-63
2021/07/20 13:37:16;;;;;;;;;;;29.30;51.50;;;;;;5088127;28;19942;-62
2021/07/20 13:39:41;;;;;;;;;;;29.30;51.40;;;;;;5085458;28;19908;-63
2021/07/20 13:42:07;;;;;;;;;;;29.30;51.40;;;;;;5083399;28;19912;-64
2021/07/20 13:44:33;;;;;;;;;;;29.40;51.50;;;;;;5084818;28;19912;-64
2021/07/20 13:46:59;;;;;;;;;;;29.40;51.50;;;;;;5085246;28;20696;-64
2021/07/20 13:49:26;;;;;;;;;;;29.40;51.40;;;;;;5086283;28;19917;-62
2021/07/20 13:51:52;;;;;;;;;;;29.40;51.40;;;;;;5084513;28;19927;-65
2021/07/20 13:54:21;;;;;;;;;;;29.40;51.40;;;;;;5089596;28;19911;-63
2021/07/20 13:56:51;;;;;;;;;;;29.50;51.40;;;;;;5090538;28;20395;-64
2021/07/20 13:59:22;;;;;;;;;;;29.50;51.30;;;;;;5087616;28;19968;-63
2021/07/20 14:01:48;;;;;;;;;;;29.50;51.30;;;;;;5090011;28;19935;-63
2021/07/20 14:04:16;;;;;;;;;;;29.50;51.30;;;;;;5089010;28;20284;-65
2021/07/20 14:06:42;;;;;;;;;;;29.50;51.40;;;;;;5081641;28;20001;-62
2021/07/20 14:09:09;;;;;;;;;;;29.50;51.40;;;;;;5087544;28;19974;-63
2021/07/20 14:11:34;;;;;;;;;;;29.50;51.40;;;;;;5087736;28;19919;-65
2021/07/20 14:14:01;;;;;;;;;;;29.50;51.30;;;;;;5089247;28;19911;-64
2021/07/20 14:16:28;;;;;;;;;;;29.60;51.30;;;;;;5082439;28;19919;-64
2021/07/20 14:18:54;;;;;;;;;;;29.60;51.30;;;;;;5080936;28;20071;-63
2021/07/20 14:21:24;;;;;;;;;;;29.60;51.30;;;;;;5080758;28;19908;-65
2021/07/20 14:23:57;;;;;;;;;;;29.60;50.90;;;;;;5091326;28;19919;-64
2021/07/20 14:26:23;;;;;;;;;;;29.50;50.40;;;;;;5081532;28;19979;-62
2021/07/20 14:28:53;;;;;;;;;;;29.40;50.30;;;;;;5074469;28;19919;-63